createdAt,value
2023-05-15T00:00:50.619Z,0.50
2023-05-15T00:01:50.632Z,0.45
2023-05-15T00:02:50.736Z,0.41
2023-05-15T00:03:50.722Z,0.41
2023-05-15T00:04:50.694Z,0.43
2023-05-15T00:05:50.638Z,0.45
2023-05-15T00:06:50.631Z,0.49
2023-05-15T00:07:50.626Z,0.50
2023-05-15T00:08:50.633Z,0.50
2023-05-15T00:09:50.633Z,0.50
2023-05-15T00:11:00.654Z,0.51
2023-05-15T00:11:50.658Z,0.51
2023-05-15T00:12:50.624Z,0.48
2023-05-15T00:13:50.626Z,0.45
2023-05-15T00:14:50.618Z,0.42
2023-05-15T00:15:50.653Z,0.41
2023-05-15T00:16:50.595Z,0.47
2023-05-15T00:17:50.633Z,0.50
2023-05-15T00:18:50.626Z,0.50
2023-05-15T00:19:50.580Z,0.50
2023-05-15T00:20:50.561Z,0.50
2023-05-15T00:21:50.554Z,0.50
2023-05-15T00:22:50.541Z,0.50
2023-05-15T00:23:50.547Z,0.50
2023-05-15T00:24:50.569Z,0.51
2023-05-15T00:25:50.547Z,0.51
2023-05-15T00:26:51.440Z,0.51
2023-05-15T00:27:50.553Z,0.50
2023-05-15T00:28:50.502Z,0.50
2023-05-15T00:29:50.500Z,0.50
2023-05-15T00:30:50.509Z,0.51
2023-05-15T00:31:50.597Z,0.50
2023-05-15T00:32:50.516Z,0.50
2023-05-15T00:33:50.481Z,0.50
2023-05-15T00:34:50.467Z,0.50
2023-05-15T00:35:50.460Z,0.52
2023-05-15T00:36:50.449Z,0.51
2023-05-15T00:37:50.443Z,0.51
2023-05-15T00:38:50.440Z,0.51
2023-05-15T00:39:50.437Z,0.51
2023-05-15T00:40:50.424Z,0.51
2023-05-15T00:41:50.420Z,0.50
2023-05-15T00:42:50.412Z,0.51
2023-05-15T00:43:50.430Z,0.51
2023-05-15T00:44:50.399Z,0.50
2023-05-15T00:45:50.392Z,0.50
2023-05-15T00:46:50.412Z,0.51
2023-05-15T00:47:50.432Z,0.51
2023-05-15T00:48:50.385Z,0.50
2023-05-15T00:49:50.372Z,0.50
2023-05-15T00:50:50.372Z,0.51
2023-05-15T00:51:50.359Z,0.51
2023-05-15T00:52:50.349Z,0.51
2023-05-15T00:53:50.344Z,0.52
2023-05-15T00:54:50.332Z,0.51
2023-05-15T00:55:50.332Z,0.51
2023-05-15T00:56:50.319Z,0.51
2023-05-15T00:57:50.310Z,0.51
2023-05-15T00:58:50.322Z,0.51
2023-05-15T00:59:50.323Z,0.50
2023-05-15T01:00:50.351Z,0.51
2023-05-15T01:01:50.279Z,0.51
2023-05-15T01:02:50.362Z,0.52
2023-05-15T01:03:50.271Z,0.51
2023-05-15T01:04:50.273Z,0.50
2023-05-15T01:05:50.271Z,0.52
2023-05-15T01:06:50.257Z,0.51
2023-05-15T01:07:50.243Z,0.52
2023-05-15T01:08:50.250Z,0.51
2023-05-15T01:09:50.247Z,0.52
2023-05-15T01:10:50.218Z,0.51
2023-05-15T01:11:50.223Z,0.51
2023-05-15T01:12:50.214Z,0.51
2023-05-15T01:13:50.209Z,0.52
2023-05-15T01:14:50.200Z,0.51
2023-05-15T01:15:50.236Z,0.50
2023-05-15T01:16:50.174Z,0.51
2023-05-15T01:17:50.202Z,0.52
2023-05-15T01:18:50.273Z,0.50
2023-05-15T01:19:50.324Z,0.51
2023-05-15T01:20:50.203Z,0.51
2023-05-15T01:21:50.227Z,0.51
2023-05-15T01:22:50.219Z,0.52
2023-05-15T01:23:50.228Z,0.51
2023-05-15T01:24:50.271Z,0.51
2023-05-15T01:25:50.248Z,0.51
2023-05-15T01:26:50.256Z,0.50
2023-05-15T01:27:50.260Z,0.50
2023-05-15T01:28:50.265Z,0.51
2023-05-15T01:29:50.277Z,0.50
2023-05-15T01:30:50.294Z,0.52
2023-05-15T01:31:50.399Z,0.52
2023-05-15T01:32:50.340Z,0.51
2023-05-15T01:33:50.323Z,0.52
2023-05-15T01:34:50.327Z,0.51
2023-05-15T01:35:50.335Z,0.52
2023-05-15T01:36:50.343Z,0.51
2023-05-15T01:37:50.347Z,0.52
2023-05-15T01:38:50.369Z,0.51
2023-05-15T01:39:50.378Z,0.52
2023-05-15T01:40:50.412Z,0.51
2023-05-15T01:41:50.402Z,0.50
2023-05-15T01:42:50.424Z,0.51
2023-05-15T01:43:50.458Z,0.51
2023-05-15T01:44:50.449Z,0.51
2023-05-15T01:45:50.469Z,0.51
2023-05-15T01:46:50.568Z,0.50
2023-05-15T01:47:50.563Z,0.51
2023-05-15T01:48:50.522Z,0.51
2023-05-15T01:49:50.534Z,0.52
2023-05-15T01:50:50.575Z,0.52
2023-05-15T01:51:50.573Z,0.51
2023-05-15T01:52:50.645Z,0.51
2023-05-15T01:53:50.610Z,0.52
2023-05-15T01:54:50.617Z,0.51
2023-05-15T01:55:50.653Z,0.51
2023-05-15T01:56:50.679Z,0.51
2023-05-15T01:57:50.663Z,0.51
2023-05-15T01:58:50.678Z,0.51
2023-05-15T01:59:50.693Z,0.51
2023-05-15T02:00:50.726Z,0.51
2023-05-15T02:01:50.835Z,0.52
2023-05-15T02:02:50.879Z,0.51
2023-05-15T02:03:50.970Z,0.51
2023-05-15T02:04:50.841Z,0.51
2023-05-15T02:05:50.800Z,0.51
2023-05-15T02:06:50.820Z,0.52
2023-05-15T02:07:50.857Z,0.52
2023-05-15T02:08:50.861Z,0.51
2023-05-15T02:09:50.887Z,0.51
2023-05-15T02:10:50.902Z,0.52
2023-05-15T02:11:50.903Z,0.52
2023-05-15T02:12:50.916Z,0.51
2023-05-15T02:13:50.952Z,0.51
2023-05-15T02:14:50.947Z,0.51
2023-05-15T02:15:50.994Z,0.51
2023-05-15T02:16:50.977Z,0.52
2023-05-15T02:17:51.045Z,0.50
2023-05-15T02:18:51.040Z,0.51
2023-05-15T02:19:51.053Z,0.50
2023-05-15T02:20:51.043Z,0.51
2023-05-15T02:21:51.063Z,0.51
2023-05-15T02:22:51.078Z,0.51
2023-05-15T02:23:51.107Z,0.51
2023-05-15T02:24:51.100Z,0.51
2023-05-15T02:25:51.131Z,0.52
2023-05-15T02:26:51.172Z,0.51
2023-05-15T02:27:51.148Z,0.51
2023-05-15T02:28:51.157Z,0.52
2023-05-15T02:29:51.182Z,0.51
2023-05-15T02:30:51.197Z,0.51
2023-05-15T02:31:51.284Z,0.52
2023-05-15T02:32:51.282Z,0.52
2023-05-15T02:33:51.279Z,0.51
2023-05-15T02:34:51.299Z,0.51
2023-05-15T02:35:51.378Z,0.51
2023-05-15T02:36:51.321Z,0.51
2023-05-15T02:37:51.336Z,0.51
2023-05-15T02:38:51.347Z,0.51
2023-05-15T02:39:51.368Z,0.52
2023-05-15T02:40:51.389Z,0.51
2023-05-15T02:41:51.397Z,0.51
2023-05-15T02:42:51.421Z,0.50
2023-05-15T02:43:51.432Z,0.52
2023-05-15T02:44:51.463Z,0.50
2023-05-15T02:45:51.490Z,0.51
2023-05-15T02:46:51.499Z,0.51
2023-05-15T02:47:51.573Z,0.51
2023-05-15T02:48:51.530Z,0.51
2023-05-15T02:49:51.542Z,0.52
2023-05-15T02:50:51.561Z,0.52
2023-05-15T02:51:51.607Z,0.51
2023-05-15T02:52:51.609Z,0.51
2023-05-15T02:53:51.617Z,0.51
2023-05-15T02:54:52.002Z,0.51
2023-05-15T02:55:52.062Z,0.51
2023-05-15T02:56:52.065Z,0.51
2023-05-15T02:57:52.054Z,0.51
2023-05-15T02:58:52.060Z,0.51
2023-05-15T02:59:52.063Z,0.52
2023-05-15T03:00:52.090Z,0.52
2023-05-15T03:01:52.058Z,0.51
2023-05-15T03:02:52.082Z,0.51
2023-05-15T03:03:52.118Z,0.51
2023-05-15T03:04:52.074Z,0.51
2023-05-15T03:05:52.064Z,0.52
2023-05-15T03:06:52.079Z,0.52
2023-05-15T03:07:52.108Z,0.51
2023-05-15T03:08:52.081Z,0.51
2023-05-15T03:09:52.068Z,0.51
2023-05-15T03:10:52.443Z,0.52
2023-05-15T03:11:52.077Z,0.52
2023-05-15T03:12:52.071Z,0.51
2023-05-15T03:13:52.074Z,0.52
2023-05-15T03:14:52.062Z,0.52
2023-05-15T03:15:52.078Z,0.52
2023-05-15T03:16:52.165Z,0.51
2023-05-15T03:17:52.157Z,0.51
2023-05-15T03:18:52.131Z,0.52
2023-05-15T03:19:52.084Z,0.52
2023-05-15T03:20:52.093Z,0.51
2023-05-15T03:21:52.124Z,0.52
2023-05-15T03:22:52.139Z,0.52
2023-05-15T03:23:52.187Z,0.52
2023-05-15T03:24:52.183Z,0.52
2023-05-15T03:25:52.209Z,0.52
2023-05-15T03:26:52.215Z,0.51
2023-05-15T03:27:52.232Z,0.51
2023-05-15T03:28:52.255Z,0.52
2023-05-15T03:29:52.268Z,0.52
2023-05-15T03:30:52.316Z,0.52
2023-05-15T03:31:52.396Z,0.52
2023-05-15T03:32:52.418Z,0.52
2023-05-15T03:33:52.366Z,0.52
2023-05-15T03:34:52.389Z,0.52
2023-05-15T03:35:52.424Z,0.52
2023-05-15T03:36:52.497Z,0.52
2023-05-15T03:37:52.472Z,0.52
2023-05-15T03:38:52.483Z,0.52
2023-05-15T03:39:52.521Z,0.51
2023-05-15T03:40:52.513Z,0.52
2023-05-15T03:41:52.544Z,0.52
2023-05-15T03:42:52.561Z,0.52
2023-05-15T03:43:52.594Z,0.52
2023-05-15T03:44:52.617Z,0.52
2023-05-15T03:45:52.646Z,0.53
2023-05-15T03:46:52.830Z,0.52
2023-05-15T03:47:53.072Z,0.52
2023-05-15T03:48:53.091Z,0.52
2023-05-15T03:49:53.087Z,0.52
2023-05-15T03:50:53.089Z,0.52
2023-05-15T03:51:53.089Z,0.52
2023-05-15T03:52:53.103Z,0.53
2023-05-15T03:53:53.086Z,0.52
2023-05-15T03:54:53.089Z,0.52
2023-05-15T03:55:53.114Z,0.52
2023-05-15T03:56:53.096Z,0.52
2023-05-15T03:57:53.088Z,0.51
2023-05-15T03:58:53.085Z,0.52
2023-05-15T03:59:53.090Z,0.52
2023-05-15T04:00:53.085Z,0.52
2023-05-15T04:02:04.257Z,0.52
2023-05-15T04:02:53.149Z,0.52
2023-05-15T04:03:53.110Z,0.53
2023-05-15T04:04:53.170Z,0.53
2023-05-15T04:05:53.086Z,0.53
2023-05-15T04:06:53.110Z,0.52
2023-05-15T04:07:53.093Z,0.52
2023-05-15T04:08:53.092Z,0.52
2023-05-15T04:09:53.090Z,0.52
2023-05-15T04:10:53.103Z,0.52
2023-05-15T04:11:53.128Z,0.52
2023-05-15T04:12:53.101Z,0.53
2023-05-15T04:13:53.103Z,0.52
2023-05-15T04:14:53.102Z,0.53
2023-05-15T04:15:53.277Z,0.52
2023-05-15T04:16:53.137Z,0.52
2023-05-15T04:17:53.186Z,0.52
2023-05-15T04:18:53.126Z,0.52
2023-05-15T04:19:53.131Z,0.52
2023-05-15T04:20:53.106Z,0.52
2023-05-15T04:21:53.154Z,0.52
2023-05-15T04:22:53.105Z,0.51
2023-05-15T04:23:53.112Z,0.52
2023-05-15T04:24:53.101Z,0.54
2023-05-15T04:25:53.142Z,0.53
2023-05-15T04:26:53.158Z,0.53
2023-05-15T04:27:53.152Z,0.52
2023-05-15T04:29:03.507Z,0.53
2023-05-15T04:29:53.130Z,0.53
2023-05-15T04:30:53.104Z,0.53
2023-05-15T04:31:53.147Z,0.53
2023-05-15T04:32:53.156Z,0.53
2023-05-15T04:33:53.125Z,0.53
2023-05-15T04:34:53.117Z,0.52
2023-05-15T04:35:53.111Z,0.53
2023-05-15T04:36:53.110Z,0.54
2023-05-15T04:37:53.110Z,0.53
2023-05-15T04:38:53.110Z,0.53
2023-05-15T04:39:53.104Z,0.53
2023-05-15T04:40:53.108Z,0.52
2023-05-15T04:41:53.065Z,0.53
2023-05-15T04:42:53.095Z,0.52
2023-05-15T04:43:52.789Z,0.52
2023-05-15T04:44:52.698Z,0.52
2023-05-15T04:45:52.736Z,0.53
2023-05-15T04:46:52.691Z,0.53
2023-05-15T04:47:52.744Z,0.52
2023-05-15T04:48:52.693Z,0.52
2023-05-15T04:49:52.674Z,0.53
2023-05-15T04:50:52.675Z,0.52
2023-05-15T04:51:52.654Z,0.52
2023-05-15T04:52:52.652Z,0.53
2023-05-15T04:53:52.667Z,0.52
2023-05-15T04:54:52.676Z,0.53
2023-05-15T04:55:52.638Z,0.53
2023-05-15T04:56:52.646Z,0.52
2023-05-15T04:57:52.615Z,0.53
2023-05-15T04:58:52.605Z,0.52
2023-05-15T04:59:52.682Z,0.54
2023-05-15T05:00:52.587Z,0.53
2023-05-15T05:01:52.585Z,0.53
2023-05-15T05:02:52.641Z,0.53
2023-05-15T05:03:52.669Z,0.54
2023-05-15T05:04:52.607Z,0.51
2023-05-15T05:05:52.624Z,0.52
2023-05-15T05:06:53.147Z,0.54
2023-05-15T05:07:52.680Z,0.52
2023-05-15T05:08:52.702Z,0.53
2023-05-15T05:09:53.098Z,0.53
2023-05-15T05:10:53.147Z,0.53
2023-05-15T05:11:52.794Z,0.53
2023-05-15T05:12:52.813Z,0.53
2023-05-15T05:13:52.857Z,0.53
2023-05-15T05:14:52.877Z,0.53
2023-05-15T05:15:52.985Z,0.53
2023-05-15T05:16:52.952Z,0.53
2023-05-15T05:17:52.973Z,0.53
2023-05-15T05:18:53.071Z,0.53
2023-05-15T05:19:53.019Z,0.53
2023-05-15T05:20:53.085Z,0.52
2023-05-15T05:21:53.566Z,0.53
2023-05-15T05:22:53.101Z,0.55
2023-05-15T05:23:53.141Z,0.57
2023-05-15T05:24:53.173Z,0.58
2023-05-15T05:25:53.168Z,0.61
2023-05-15T05:26:53.567Z,0.56
2023-05-15T05:27:53.226Z,0.49
2023-05-15T05:28:53.555Z,0.50
2023-05-15T05:29:53.312Z,0.51
2023-05-15T05:30:53.389Z,0.50
2023-05-15T05:31:53.638Z,0.50
2023-05-15T05:32:53.436Z,0.50
2023-05-15T05:33:53.637Z,0.51
2023-05-15T05:34:53.432Z,0.50
2023-05-15T05:35:53.435Z,0.50
2023-05-15T05:36:53.570Z,0.51
2023-05-15T05:37:53.477Z,0.51
2023-05-15T05:38:53.568Z,0.52
2023-05-15T05:39:53.543Z,0.51
2023-05-15T05:40:53.576Z,0.51
2023-05-15T05:41:54.068Z,0.53
2023-05-15T05:42:53.659Z,0.52
2023-05-15T05:43:53.705Z,0.51
2023-05-15T05:44:53.745Z,0.53
2023-05-15T05:45:53.790Z,0.53
2023-05-15T05:46:54.244Z,0.61
2023-05-15T05:47:53.963Z,0.67
2023-05-15T05:48:53.953Z,0.66
2023-05-15T05:49:55.025Z,0.66
2023-05-15T05:50:54.105Z,0.68
2023-05-15T05:51:54.640Z,0.67
2023-05-15T05:52:54.210Z,0.66
2023-05-15T05:53:55.291Z,0.81
2023-05-15T05:54:54.331Z,0.79
2023-05-15T05:55:54.405Z,0.79
2023-05-15T05:56:54.568Z,0.78
2023-05-15T05:57:54.565Z,0.86
2023-05-15T06:00:01.896Z,0.71
2023-05-15T06:00:54.568Z,0.65
2023-05-15T06:02:26.387Z,0.72
2023-05-15T06:02:54.696Z,0.75
2023-05-15T06:03:54.676Z,0.78
2023-05-15T06:05:10.121Z,0.87
2023-05-15T06:05:57.665Z,0.76
2023-05-15T06:07:54.458Z,0.76
2023-05-15T06:09:10.040Z,0.83
2023-05-15T06:10:01.871Z,0.76
2023-05-15T06:11:01.814Z,0.76
2023-05-15T06:11:57.939Z,0.77
2023-05-15T06:12:54.452Z,0.77
2023-05-15T06:14:26.192Z,0.87
2023-05-15T06:14:54.401Z,0.77
2023-05-15T06:15:54.382Z,0.87
2023-05-15T06:16:54.465Z,1.09
2023-05-15T06:17:54.401Z,1.51
2023-05-15T06:18:55.438Z,2.41
2023-05-15T06:19:54.384Z,2.66
2023-05-15T06:20:54.353Z,2.70
2023-05-15T06:21:54.572Z,2.72
2023-05-15T06:23:02.085Z,2.84
2023-05-15T06:23:54.324Z,2.85
2023-05-15T06:24:54.318Z,2.87
2023-05-15T06:25:54.341Z,2.93
2023-05-15T06:26:54.602Z,3.09
2023-05-15T06:28:09.923Z,3.49
2023-05-15T06:28:54.332Z,2.87
2023-05-15T06:29:54.285Z,2.97
2023-05-15T06:30:54.309Z,3.16
2023-05-15T06:31:54.575Z,3.48
2023-05-15T06:32:54.637Z,4.05
2023-05-15T06:33:54.260Z,4.24
2023-05-15T06:34:54.240Z,4.41
2023-05-15T06:35:54.448Z,4.55
2023-05-15T06:36:54.574Z,4.80
2023-05-15T06:37:55.378Z,4.89
2023-05-15T06:38:54.210Z,4.90
2023-05-15T06:39:54.218Z,5.00
2023-05-15T06:40:54.611Z,5.16
2023-05-15T06:42:10.171Z,5.48
2023-05-15T06:43:01.588Z,4.94
2023-05-15T06:44:01.981Z,4.95
2023-05-15T06:44:54.214Z,4.96
2023-05-15T06:45:54.210Z,5.17
2023-05-15T06:46:54.613Z,5.55
2023-05-15T06:47:54.210Z,6.16
2023-05-15T06:48:54.228Z,7.05
2023-05-15T06:49:55.127Z,7.39
2023-05-15T06:50:54.155Z,7.35
2023-05-15T06:51:54.614Z,7.81
2023-05-15T06:52:54.108Z,7.82
2023-05-15T06:53:54.599Z,7.78
2023-05-15T06:54:54.819Z,7.84
2023-05-15T06:55:54.105Z,8.24
2023-05-15T06:56:54.595Z,8.50
2023-05-15T06:57:54.212Z,8.53
2023-05-15T06:59:54.074Z,8.47
2023-05-15T07:01:01.524Z,8.52
2023-05-15T07:01:57.349Z,8.50
2023-05-15T07:02:55.261Z,8.51
2023-05-15T07:03:54.205Z,8.65
2023-05-15T07:04:54.247Z,8.77
2023-05-15T07:05:54.086Z,9.19
2023-05-15T07:07:01.466Z,9.47
2023-05-15T07:07:54.066Z,8.51
2023-05-15T07:08:54.134Z,8.70
2023-05-15T07:09:54.196Z,8.99
2023-05-15T07:10:54.104Z,9.68
2023-05-15T07:11:54.018Z,10.53
2023-05-15T07:12:54.016Z,10.50
2023-05-15T07:13:53.989Z,10.63
2023-05-15T07:14:53.961Z,11.49
2023-05-15T07:15:54.093Z,12.59
2023-05-15T07:16:53.948Z,13.00
2023-05-15T07:17:55.058Z,13.13
2023-05-15T07:18:54.040Z,13.59
2023-05-15T07:19:53.951Z,13.57
2023-05-15T07:20:54.621Z,13.72
2023-05-15T07:21:54.204Z,14.08
2023-05-15T07:22:56.837Z,14.19
2023-05-15T07:23:53.889Z,14.21
2023-05-15T07:24:53.878Z,14.31
2023-05-15T07:25:53.882Z,14.37
2023-05-15T07:26:58.868Z,14.78
2023-05-15T07:27:54.896Z,14.26
2023-05-15T07:28:53.854Z,14.27
2023-05-15T07:29:54.264Z,14.39
2023-05-15T07:30:54.359Z,14.88
2023-05-15T07:31:54.393Z,15.29
2023-05-15T07:32:53.869Z,14.94
2023-05-15T07:33:57.060Z,15.05
2023-05-15T07:34:53.820Z,15.06
2023-05-15T07:36:53.784Z,15.06
2023-05-15T07:37:53.825Z,15.08
2023-05-15T07:38:57.078Z,14.78
2023-05-15T07:39:53.804Z,15.08
2023-05-15T07:40:53.748Z,15.05
2023-05-15T07:41:54.230Z,15.25
2023-05-15T07:42:55.218Z,15.70
2023-05-15T07:43:53.798Z,16.77
2023-05-15T07:44:53.782Z,16.35
2023-05-15T07:45:53.901Z,15.98
2023-05-15T07:46:53.828Z,16.43
2023-05-15T07:47:54.180Z,16.47
2023-05-15T07:48:53.819Z,16.56
2023-05-15T07:49:54.984Z,16.66
2023-05-15T07:50:53.908Z,16.75
2023-05-15T07:51:54.218Z,17.21
2023-05-15T07:52:57.812Z,18.12
2023-05-15T07:54:26.295Z,18.15
2023-05-15T07:54:53.926Z,18.21
2023-05-15T07:55:57.120Z,18.45
2023-05-15T07:56:57.300Z,18.23
2023-05-15T07:57:57.308Z,18.24
2023-05-15T07:59:09.570Z,18.26
2023-05-15T07:59:57.152Z,18.27
2023-05-15T08:00:53.888Z,18.28
2023-05-15T08:01:57.507Z,18.68
2023-05-15T08:02:54.178Z,18.26
2023-05-15T08:03:53.923Z,18.54
2023-05-15T08:04:53.853Z,18.72
2023-05-15T08:05:53.840Z,18.53
2023-05-15T08:06:53.832Z,17.62
2023-05-15T08:07:54.120Z,15.37
2023-05-15T08:08:53.817Z,11.63
2023-05-15T08:09:53.944Z,11.35
2023-05-15T08:10:53.801Z,11.38
2023-05-15T08:11:53.789Z,10.61
2023-05-15T08:12:54.124Z,9.52
2023-05-15T08:13:53.793Z,8.91
2023-05-15T08:14:53.755Z,7.53
2023-05-15T08:15:53.795Z,6.56
2023-05-15T08:16:53.745Z,5.56
2023-05-15T08:17:54.150Z,5.36
2023-05-15T08:18:53.797Z,5.23
2023-05-15T08:19:53.728Z,4.97
2023-05-15T08:20:53.712Z,4.56
2023-05-15T08:21:53.700Z,4.20
2023-05-15T08:22:53.695Z,3.88
2023-05-15T08:23:53.940Z,3.86
2023-05-15T08:24:53.686Z,3.49
2023-05-15T08:25:53.692Z,3.50
2023-05-15T08:26:53.663Z,3.39
2023-05-15T08:27:54.112Z,3.35
2023-05-15T08:28:54.647Z,3.37
2023-05-15T08:29:57.447Z,3.16
2023-05-15T08:30:53.701Z,3.16
2023-05-15T08:31:53.652Z,3.15
2023-05-15T08:32:54.203Z,2.92
2023-05-15T08:33:53.636Z,2.71
2023-05-15T08:34:54.128Z,2.74
2023-05-15T08:35:53.664Z,2.60
2023-05-15T08:36:53.620Z,2.48
2023-05-15T08:37:53.614Z,2.45
2023-05-15T08:38:53.603Z,2.46
2023-05-15T08:39:53.617Z,2.32
2023-05-15T08:40:53.582Z,2.34
2023-05-15T08:41:53.622Z,2.35
2023-05-15T08:42:53.570Z,2.10
2023-05-15T08:43:56.759Z,2.01
2023-05-15T08:44:53.618Z,2.01
2023-05-15T08:45:53.553Z,2.02
2023-05-15T08:46:53.736Z,1.99
2023-05-15T08:48:01.096Z,2.10
2023-05-15T08:48:56.778Z,2.02
2023-05-15T08:49:56.796Z,2.02
2023-05-15T08:50:53.502Z,2.02
2023-05-15T08:51:53.487Z,2.04
2023-05-15T08:52:53.622Z,2.10
2023-05-15T08:53:53.493Z,2.15
2023-05-15T08:54:53.484Z,2.39
2023-05-15T08:55:53.486Z,2.50
2023-05-15T08:56:53.465Z,2.55
2023-05-15T08:58:01.061Z,2.68
2023-05-15T08:58:56.647Z,2.69
2023-05-15T08:59:53.456Z,2.70
2023-05-15T09:00:53.425Z,2.73
2023-05-15T09:01:53.446Z,2.80
2023-05-15T09:02:53.700Z,2.93
2023-05-15T09:03:53.434Z,3.11
2023-05-15T09:04:53.652Z,3.15
2023-05-15T09:05:53.407Z,3.28
2023-05-15T09:06:53.406Z,3.39
2023-05-15T09:07:53.359Z,3.44
2023-05-15T09:08:53.372Z,3.45
2023-05-15T09:09:53.639Z,3.56
2023-05-15T09:10:53.340Z,3.57
2023-05-15T09:11:53.345Z,3.68
2023-05-15T09:12:53.367Z,3.84
2023-05-15T09:13:53.366Z,3.91
2023-05-15T09:14:53.636Z,4.02
2023-05-15T09:16:53.455Z,4.12
2023-05-15T09:17:53.381Z,4.16
2023-05-15T09:18:53.362Z,4.19
2023-05-15T09:19:53.298Z,4.29
2023-05-15T09:20:55.473Z,4.40
2023-05-15T09:21:53.256Z,4.13
2023-05-15T09:22:53.656Z,4.18
2023-05-15T09:23:53.347Z,4.28
2023-05-15T09:24:53.634Z,4.42
2023-05-15T09:25:53.990Z,4.72
2023-05-15T09:26:53.246Z,4.87
2023-05-15T09:27:53.211Z,4.76
2023-05-15T09:28:53.205Z,4.98
2023-05-15T09:29:53.236Z,5.08
2023-05-15T09:30:53.640Z,5.09
2023-05-15T09:31:53.238Z,5.25
2023-05-15T09:32:53.269Z,5.42
2023-05-15T09:34:53.169Z,5.76
2023-05-15T09:36:53.661Z,5.77
2023-05-15T09:37:53.648Z,5.78
2023-05-15T09:38:53.140Z,5.90
2023-05-15T09:39:53.400Z,6.15
2023-05-15T09:40:53.134Z,6.56
2023-05-15T09:41:54.136Z,7.26
2023-05-15T09:42:53.502Z,7.38
2023-05-15T09:43:53.453Z,7.48
2023-05-15T09:44:53.097Z,7.20
2023-05-15T09:45:53.226Z,7.05
2023-05-15T09:46:53.216Z,6.90
2023-05-15T09:47:53.260Z,6.78
2023-05-15T09:48:53.142Z,6.62
2023-05-15T09:49:53.080Z,6.14
2023-05-15T09:50:53.124Z,5.80
2023-05-15T09:51:53.140Z,5.67
2023-05-15T09:52:53.307Z,5.34
2023-05-15T09:53:53.235Z,4.89
2023-05-15T09:54:53.256Z,4.66
2023-05-15T09:55:53.656Z,4.59
2023-05-15T09:56:53.340Z,4.36
2023-05-15T09:57:54.644Z,4.08
2023-05-15T09:58:53.383Z,3.79
2023-05-15T09:59:53.428Z,3.48
2023-05-15T10:00:53.464Z,3.43
2023-05-15T10:01:53.579Z,3.32
2023-05-15T10:02:53.568Z,3.25
2023-05-15T10:03:53.589Z,3.08
2023-05-15T10:04:53.661Z,2.91
2023-05-15T10:05:53.701Z,2.76
2023-05-15T10:06:53.721Z,2.66
2023-05-15T10:07:54.403Z,2.62
2023-05-15T10:08:53.878Z,2.55
2023-05-15T10:09:53.868Z,2.46
2023-05-15T10:10:53.933Z,2.40
2023-05-15T10:11:54.377Z,2.37
2023-05-15T10:12:54.716Z,2.29
2023-05-15T10:13:54.377Z,2.16
2023-05-15T10:14:54.372Z,2.15
2023-05-15T10:15:54.151Z,2.15
2023-05-15T10:16:54.185Z,2.08
2023-05-15T10:17:54.746Z,2.08
2023-05-15T10:18:54.387Z,2.02
2023-05-15T10:19:58.353Z,1.93
2023-05-15T10:20:54.354Z,1.94
2023-05-15T10:21:54.402Z,1.94
2023-05-15T10:22:55.669Z,1.89
2023-05-15T10:23:54.663Z,1.88
2023-05-15T10:24:54.665Z,1.65
2023-05-15T10:25:57.808Z,1.66
2023-05-15T10:26:55.598Z,1.66
2023-05-15T10:27:54.595Z,1.67
2023-05-15T10:28:54.566Z,1.66
2023-05-15T10:29:54.668Z,1.51
2023-05-15T10:30:54.601Z,1.52
2023-05-15T10:31:54.643Z,1.25
2023-05-15T10:32:55.174Z,1.12
2023-05-15T10:33:54.596Z,0.90
2023-05-15T10:34:54.532Z,0.66
2023-05-15T10:35:54.510Z,0.52
2023-05-15T10:36:54.504Z,0.58
2023-05-15T10:37:54.547Z,0.67
2023-05-15T10:38:54.612Z,0.71
2023-05-15T10:39:54.627Z,0.72
2023-05-15T10:41:02.725Z,0.74
2023-05-15T10:41:55.169Z,0.74
2023-05-15T10:42:54.626Z,0.74
2023-05-15T10:43:54.607Z,0.75
2023-05-15T10:44:54.604Z,0.78
2023-05-15T10:45:54.597Z,0.81
2023-05-15T10:46:54.641Z,0.81
2023-05-15T10:47:54.623Z,0.75
2023-05-15T10:48:54.730Z,0.78
2023-05-15T10:49:54.595Z,0.84
2023-05-15T10:50:54.560Z,0.83
2023-05-15T10:51:54.550Z,0.88
2023-05-15T10:52:54.556Z,0.84
2023-05-15T10:53:54.676Z,0.84
2023-05-15T10:54:54.521Z,0.90
2023-05-15T10:55:54.550Z,0.91
2023-05-15T10:56:54.672Z,1.05
2023-05-15T10:57:54.496Z,1.12
2023-05-15T10:58:54.549Z,1.30
2023-05-15T10:59:54.480Z,1.62
2023-05-15T11:00:54.560Z,1.81
2023-05-15T11:01:54.666Z,1.76
2023-05-15T11:02:54.499Z,1.77
2023-05-15T11:03:55.411Z,1.66
2023-05-15T11:04:54.438Z,1.79
2023-05-15T11:05:54.463Z,1.75
2023-05-15T11:06:54.421Z,1.57
2023-05-15T11:07:54.433Z,1.46
2023-05-15T11:08:55.186Z,1.41
2023-05-15T11:09:54.421Z,1.43
2023-05-15T11:10:54.407Z,1.48
2023-05-15T11:11:54.408Z,1.50
2023-05-15T11:12:54.376Z,1.45
2023-05-15T11:13:54.699Z,1.49
2023-05-15T11:14:54.370Z,1.52
2023-05-15T11:15:54.356Z,1.56
2023-05-15T11:16:54.408Z,1.61
2023-05-15T11:17:54.380Z,1.61
2023-05-15T11:18:54.727Z,1.67
2023-05-15T11:19:54.335Z,1.72
2023-05-15T11:20:54.678Z,1.76
2023-05-15T11:21:55.193Z,1.75
2023-05-15T11:22:54.346Z,1.75
2023-05-15T11:23:54.363Z,1.82
2023-05-15T11:24:54.814Z,2.04
2023-05-15T11:25:54.685Z,2.06
2023-05-15T11:26:54.524Z,2.17
2023-05-15T11:27:54.585Z,2.31
2023-05-15T11:28:54.622Z,2.37
2023-05-15T11:29:54.674Z,2.51
2023-05-15T11:30:54.757Z,2.65
2023-05-15T11:31:54.735Z,2.78
2023-05-15T11:32:54.789Z,2.85
2023-05-15T11:33:54.776Z,2.96
2023-05-15T11:34:55.587Z,3.12
2023-05-15T11:35:54.816Z,3.35
2023-05-15T11:36:55.199Z,3.45
2023-05-15T11:37:54.883Z,3.53
2023-05-15T11:38:54.872Z,3.69
2023-05-15T11:39:55.194Z,3.82
2023-05-15T11:40:54.917Z,3.96
2023-05-15T11:41:55.183Z,4.09
2023-05-15T11:42:54.909Z,4.30
2023-05-15T11:43:55.300Z,4.36
2023-05-15T11:44:54.916Z,4.49
2023-05-15T11:45:54.906Z,4.60
2023-05-15T11:46:54.962Z,4.78
2023-05-15T11:47:55.715Z,4.90
2023-05-15T11:48:55.362Z,5.14
2023-05-15T11:49:54.892Z,5.36
2023-05-15T11:50:54.886Z,5.46
2023-05-15T11:51:54.917Z,5.61
2023-05-15T11:52:54.931Z,5.80
2023-05-15T11:53:55.377Z,5.92
2023-05-15T11:54:55.349Z,6.00
2023-05-15T11:55:55.000Z,6.27
2023-05-15T11:56:55.038Z,6.32
2023-05-15T11:57:55.050Z,6.45
2023-05-15T11:58:55.192Z,6.61
2023-05-15T11:59:55.093Z,6.73
2023-05-15T12:00:55.096Z,7.00
2023-05-15T12:01:55.101Z,6.99
2023-05-15T12:02:55.170Z,7.33
2023-05-15T12:03:55.514Z,7.42
2023-05-15T12:04:55.166Z,7.37
2023-05-15T12:05:58.926Z,7.47
2023-05-15T12:06:55.394Z,7.49
2023-05-15T12:07:55.437Z,7.55
2023-05-15T12:08:55.728Z,7.66
2023-05-15T12:09:55.587Z,7.85
2023-05-15T12:10:55.585Z,8.23
2023-05-15T12:11:55.653Z,8.45
2023-05-15T12:12:58.902Z,8.53
2023-05-15T12:13:56.194Z,8.54
2023-05-15T12:14:55.701Z,8.58
2023-05-15T12:15:55.706Z,8.66
2023-05-15T12:16:55.831Z,8.96
2023-05-15T12:17:55.720Z,9.24
2023-05-15T12:18:55.735Z,9.41
2023-05-15T12:19:55.661Z,9.73
2023-05-15T12:20:55.662Z,9.48
2023-05-15T12:21:55.647Z,9.54
2023-05-15T12:22:55.647Z,9.76
2023-05-15T12:24:03.917Z,9.58
2023-05-15T12:24:55.706Z,9.61
2023-05-15T12:25:58.849Z,9.74
2023-05-15T12:26:57.510Z,9.62
2023-05-15T12:27:55.611Z,9.62
2023-05-15T12:28:55.750Z,9.77
2023-05-15T12:29:55.588Z,9.91
2023-05-15T12:30:55.603Z,10.27
2023-05-15T12:31:55.613Z,10.55
2023-05-15T12:32:55.640Z,10.99
2023-05-15T12:33:55.617Z,10.75
2023-05-15T12:34:55.559Z,10.83
2023-05-15T12:35:58.251Z,11.00
2023-05-15T12:36:55.545Z,11.02
2023-05-15T12:37:55.537Z,11.11
2023-05-15T12:38:55.710Z,11.19
2023-05-15T12:39:55.541Z,11.25
2023-05-15T12:40:55.515Z,11.58
2023-05-15T12:41:55.534Z,11.60
2023-05-15T12:42:55.538Z,11.87
2023-05-15T12:43:55.492Z,12.11
2023-05-15T12:44:55.503Z,12.03
2023-05-15T12:45:55.561Z,12.28
2023-05-15T12:46:55.466Z,12.53
2023-05-15T12:47:55.524Z,12.50
2023-05-15T12:48:55.470Z,12.43
2023-05-15T12:49:55.707Z,12.74
2023-05-15T12:50:55.450Z,12.91
2023-05-15T12:51:55.444Z,12.87
2023-05-15T12:52:55.436Z,13.02
2023-05-15T12:53:55.740Z,13.12
2023-05-15T12:54:55.745Z,13.22
2023-05-15T12:55:55.414Z,13.33
2023-05-15T12:57:00.188Z,13.54
2023-05-15T12:57:56.229Z,13.58
2023-05-15T12:58:55.399Z,13.57
2023-05-15T12:59:55.718Z,13.55
2023-05-15T13:00:55.376Z,13.06
2023-05-15T13:01:55.421Z,12.65
2023-05-15T13:02:55.462Z,12.16
2023-05-15T13:03:55.807Z,12.10
2023-05-15T13:04:55.720Z,11.63
2023-05-15T13:05:55.344Z,11.26
2023-05-15T13:06:55.329Z,10.81
2023-05-15T13:07:55.342Z,10.56
2023-05-15T13:08:55.716Z,10.40
2023-05-15T13:09:56.307Z,10.02
2023-05-15T13:10:55.301Z,9.70
2023-05-15T13:11:55.287Z,9.47
2023-05-15T13:12:55.321Z,9.37
2023-05-15T13:13:55.725Z,9.30
2023-05-15T13:14:55.271Z,9.14
2023-05-15T13:15:55.302Z,9.12
2023-05-15T13:16:55.248Z,8.94
2023-05-15T13:17:55.305Z,8.52
2023-05-15T13:18:55.356Z,8.72
2023-05-15T13:19:55.357Z,8.46
2023-05-15T13:20:55.401Z,8.29
2023-05-15T13:21:55.716Z,8.19
2023-05-15T13:22:58.693Z,8.09